Time;durP1;ratioP1;P1;durP2;ratioP2;P2;SDS_P1;SDS_P2;PMS_P1;PMS_P2;Temp;Humidity;BMP_temperature;BMP_pressure;BME280_temperature;BME280_humidity;BME280_pressure;Samples;Min_cycle;Max_cycle;Signal;HPM_P1;HPM_P2
2021/03/16 00:00:13;;;;;;;5.87;3.60;;;4.20;99.90;;;;;;4192427;28;20270;-69
2021/03/16 00:02:14;;;;;;;9.20;5.03;;;4.20;99.90;;;;;;4191400;28;20335;-71
2021/03/16 00:04:17;;;;;;;7.50;4.27;;;4.20;99.90;;;;;;4191971;28;20277;-70
2021/03/16 00:06:18;;;;;;;5.50;3.60;;;4.20;99.90;;;;;;4190675;28;20676;-69
2021/03/16 00:08:19;;;;;;;5.67;4.20;;;4.20;99.90;;;;;;4192836;28;20709;-71
2021/03/16 00:10:20;;;;;;;7.30;4.57;;;4.20;99.90;;;;;;4188452;28;20277;-69
2021/03/16 00:12:22;;;;;;;10.23;5.53;;;4.20;99.90;;;;;;4192196;28;20640;-69
2021/03/16 00:14:24;;;;;;;14.30;8.10;;;4.30;99.90;;;;;;4191133;28;20282;-70
2021/03/16 00:16:26;;;;;;;11.30;6.17;;;4.20;99.90;;;;;;4192164;28;20273;-68
2021/03/16 00:18:27;;;;;;;4.53;3.07;;;4.20;99.90;;;;;;4191166;28;20720;-68
2021/03/16 00:20:29;;;;;;;4.73;2.90;;;4.20;99.90;;;;;;4191329;28;20319;-70
2021/03/16 00:22:31;;;;;;;7.00;4.17;;;4.20;99.90;;;;;;4191209;28;20816;-71
2021/03/16 00:24:32;;;;;;;2.80;1.83;;;4.20;99.90;;;;;;4190625;28;20619;-69
2021/03/16 00:26:33;;;;;;;1.50;1.10;;;4.20;99.90;;;;;;4191782;28;20708;-70
2021/03/16 00:28:34;;;;;;;2.57;1.50;;;4.20;99.90;;;;;;4190861;28;20323;-71
2021/03/16 00:30:35;;;;;;;6.30;3.67;;;4.10;99.90;;;;;;4191410;28;20296;-70
2021/03/16 00:32:38;;;;;;;2.90;1.70;;;4.10;99.90;;;;;;4190709;28;21111;-69
2021/03/16 00:34:39;;;;;;;6.40;4.50;;;4.10;99.90;;;;;;4192113;28;20315;-70
2021/03/16 00:36:40;;;;;;;3.70;2.23;;;4.10;99.90;;;;;;4190678;28;20270;-69
2021/03/16 00:38:41;;;;;;;2.07;1.60;;;4.10;99.90;;;;;;4191732;28;20273;-69
2021/03/16 00:40:42;;;;;;;2.63;1.77;;;4.10;99.90;;;;;;4190562;28;20594;-70
2021/03/16 00:42:45;;;;;;;2.40;1.80;;;4.10;99.90;;;;;;4191319;28;20261;-69
2021/03/16 00:44:46;;;;;;;2.37;1.60;;;4.10;99.90;;;;;;4188714;28;20288;-68
2021/03/16 00:46:47;;;;;;;2.87;2.00;;;4.10;99.90;;;;;;4190554;28;20289;-68
2021/03/16 00:48:48;;;;;;;2.77;1.83;;;4.10;99.90;;;;;;4189830;28;20269;-70
2021/03/16 00:50:50;;;;;;;3.77;2.30;;;4.10;99.90;;;;;;4191099;28;20803;-69
2021/03/16 00:52:51;;;;;;;4.53;3.00;;;4.00;99.90;;;;;;4190864;28;20660;-69
2021/03/16 00:54:53;;;;;;;4.70;2.97;;;4.00;99.90;;;;;;4190515;28;20307;-69
2021/03/16 00:56:54;;;;;;;5.97;3.53;;;4.10;99.90;;;;;;4191091;28;20695;-69
2021/03/16 00:58:55;;;;;;;6.33;3.60;;;4.00;99.90;;;;;;4189910;28;20270;-69
2021/03/16 01:00:58;;;;;;;6.07;2.97;;;4.00;99.90;;;;;;4191017;28;20269;-68
2021/03/16 01:02:59;;;;;;;7.17;3.63;;;4.00;99.90;;;;;;4190237;28;20253;-69
2021/03/16 01:05:00;;;;;;;7.47;3.83;;;4.00;99.90;;;;;;4191602;28;20339;-68
2021/03/16 01:07:02;;;;;;;8.77;3.67;;;4.00;99.90;;;;;;4189938;28;20831;-69
2021/03/16 01:09:03;;;;;;;8.17;4.43;;;4.00;99.90;;;;;;4191612;28;20749;-68
2021/03/16 01:11:05;;;;;;;11.20;5.20;;;4.00;99.90;;;;;;4189751;28;20273;-69
2021/03/16 01:13:06;;;;;;;10.73;5.00;;;4.00;99.90;;;;;;4190916;28;20270;-68
2021/03/16 01:18:04;;;;;;;9.77;4.13;;;4.00;99.90;;;;;;4190888;28;20318;-69
2021/03/16 01:20:15;;;;;;;4.03;2.07;;;4.00;99.90;;;;;;4190028;28;20299;-69
2021/03/16 01:22:17;;;;;;;2.37;2.00;;;4.00;99.90;;;;;;4190966;28;20656;-70
2021/03/16 01:24:18;;;;;;;3.37;1.70;;;4.00;99.90;;;;;;4189922;28;20730;-69
2021/03/16 01:26:19;;;;;;;2.67;1.67;;;4.00;99.90;;;;;;4190751;28;20297;-69
2021/03/16 01:28:20;;;;;;;1.30;1.03;;;3.90;99.90;;;;;;4189755;28;20315;-69
2021/03/16 01:30:22;;;;;;;0.97;0.80;;;3.90;99.90;;;;;;4190904;28;20315;-70
2021/03/16 01:32:24;;;;;;;1.27;1.10;;;3.90;99.90;;;;;;4189759;28;20725;-69
2021/03/16 01:34:25;;;;;;;2.00;1.40;;;3.90;99.90;;;;;;4190735;28;20331;-69
2021/03/16 01:36:26;;;;;;;2.13;1.53;;;3.80;99.90;;;;;;4190634;28;20784;-69
2021/03/16 01:38:27;;;;;;;1.73;1.20;;;3.80;99.90;;;;;;4190837;28;20277;-69
2021/03/16 01:40:32;;;;;;;1.67;0.83;;;3.80;99.90;;;;;;4189958;28;20277;-68
2021/03/16 01:42:33;;;;;;;0.90;0.73;;;3.80;99.90;;;;;;4188209;28;20408;-70
2021/03/16 01:44:35;;;;;;;0.90;0.77;;;3.80;99.90;;;;;;4190167;28;20274;-69
2021/03/16 01:46:36;;;;;;;2.23;1.10;;;3.70;99.90;;;;;;4190037;28;20854;-71
2021/03/16 01:48:37;;;;;;;1.47;0.90;;;3.70;99.90;;;;;;4190551;28;20253;-69
2021/03/16 01:50:40;;;;;;;1.23;0.87;;;3.70;99.90;;;;;;4189509;28;20331;-69
2021/03/16 01:52:43;;;;;;;1.87;1.10;;;3.70;99.90;;;;;;4189694;28;20760;-69
2021/03/16 01:54:45;;;;;;;1.53;1.00;;;3.60;99.90;;;;;;4187654;28;20619;-69
2021/03/16 01:56:48;;;;;;;0.83;0.70;;;3.60;99.90;;;;;;4190440;28;20316;-69
2021/03/16 01:58:49;;;;;;;0.77;0.60;;;3.50;99.90;;;;;;4188649;28;21027;-68
2021/03/16 02:00:50;;;;;;;0.70;0.63;;;3.50;99.90;;;;;;4190240;28;20277;-69
2021/03/16 02:02:51;;;;;;;0.90;0.60;;;3.40;99.90;;;;;;4189188;28;20342;-69
2021/03/16 02:04:52;;;;;;;1.10;0.60;;;3.40;99.90;;;;;;4189588;28;20820;-67
2021/03/16 02:07:17;;;;;;;1.43;0.80;;;3.40;99.90;;;;;;4189193;28;20679;-69
2021/03/16 02:09:42;;;;;;;0.97;0.73;;;3.30;99.90;;;;;;4189497;28;20289;-68
2021/03/16 02:11:58;;;;;;;0.80;0.80;;;3.30;99.90;;;;;;4188938;28;20334;-69
2021/03/16 02:14:20;;;;;;;0.70;0.53;;;3.30;99.90;;;;;;4188383;28;20756;-69
2021/03/16 02:16:31;;;;;;;0.80;0.70;;;3.30;99.90;;;;;;4188840;28;20334;-68
2021/03/16 02:18:37;;;;;;;1.97;0.90;;;3.20;99.90;;;;;;4171706;28;20307;-69
2021/03/16 02:20:47;;;;;;;1.17;0.80;;;3.20;99.90;;;;;;4172406;28;20270;-69
2021/03/16 02:22:49;;;;;;;0.97;0.80;;;3.20;99.90;;;;;;4173308;28;20599;-68
2021/03/16 02:25:09;;;;;;;1.43;0.70;;;3.10;99.90;;;;;;4172328;28;20329;-70
2021/03/16 02:27:17;;;;;;;1.17;0.82;;;3.10;99.90;;;;;;4173052;28;20328;-69
2021/03/16 02:29:23;;;;;;;1.27;1.00;;;3.10;99.90;;;;;;4172486;28;20028;-69
2021/03/16 02:31:27;;;;;;;0.77;0.70;;;3.00;99.90;;;;;;4173580;28;20270;-69
2021/03/16 02:33:31;;;;;;;1.00;0.97;;;3.00;99.90;;;;;;4171725;28;20274;-69
2021/03/16 02:35:33;;;;;;;1.90;0.80;;;2.90;99.90;;;;;;4173307;28;20278;-69
2021/03/16 02:37:37;;;;;;;1.10;0.87;;;3.00;99.90;;;;;;4172491;28;20665;-69
2021/03/16 02:39:40;;;;;;;1.40;0.70;;;2.90;99.90;;;;;;4173753;28;20776;-68
2021/03/16 02:41:45;;;;;;;1.20;1.10;;;2.90;99.90;;;;;;4177973;28;20281;-70
2021/03/16 02:43:47;;;;;;;1.20;1.00;;;2.90;99.90;;;;;;4189802;28;20319;-69
2021/03/16 02:45:50;;;;;;;1.50;1.00;;;2.90;99.90;;;;;;4188448;28;20293;-69
2021/03/16 02:47:52;;;;;;;0.67;0.67;;;2.90;99.90;;;;;;4189089;28;20265;-69
2021/03/16 02:49:54;;;;;;;0.90;0.80;;;2.90;99.90;;;;;;4188771;28;20668;-68
2021/03/16 02:51:57;;;;;;;1.13;0.70;;;2.80;99.90;;;;;;4189439;28;20315;-68
2021/03/16 02:53:58;;;;;;;0.80;0.80;;;2.80;99.90;;;;;;4188992;28;20249;-69
2021/03/16 02:56:00;;;;;;;2.10;1.30;;;2.90;99.90;;;;;;4186986;28;20292;-69
2021/03/16 02:58:02;;;;;;;0.80;0.60;;;2.80;99.90;;;;;;4187375;28;20276;-69
2021/03/16 03:00:05;;;;;;;1.00;0.90;;;2.80;99.90;;;;;;4188718;28;20265;-69
2021/03/16 03:02:10;;;;;;;1.33;0.80;;;2.70;99.90;;;;;;4189031;28;20269;-69
2021/03/16 03:04:11;;;;;;;0.83;0.80;;;2.70;99.90;;;;;;4188470;28;20275;-68
2021/03/16 03:06:15;;;;;;;1.20;0.93;;;2.70;99.90;;;;;;4189112;28;20297;-69
2021/03/16 03:08:18;;;;;;;1.40;1.00;;;2.60;99.90;;;;;;4188808;28;20270;-69
2021/03/16 03:10:19;;;;;;;1.00;0.67;;;2.70;99.90;;;;;;4186731;28;20273;-68
2021/03/16 03:12:20;;;;;;;1.10;1.00;;;2.70;99.90;;;;;;4188299;28;20273;-69
2021/03/16 03:14:22;;;;;;;1.70;1.07;;;2.70;99.90;;;;;;4189381;28;20313;-70
2021/03/16 03:16:23;;;;;;;1.93;1.50;;;2.70;99.90;;;;;;4188478;28;20322;-69
2021/03/16 03:18:25;;;;;;;1.03;0.93;;;2.70;99.90;;;;;;4187286;28;20859;-69
2021/03/16 03:20:26;;;;;;;0.93;0.90;;;2.70;99.90;;;;;;4188296;28;20700;-69
2021/03/16 03:22:45;;;;;;;1.13;1.03;;;2.70;99.90;;;;;;4189342;28;20277;-68
2021/03/16 03:25:00;;;;;;;3.07;1.07;;;2.60;99.90;;;;;;4188610;28;20261;-69
2021/03/16 03:27:14;;;;;;;1.27;1.17;;;2.50;99.90;;;;;;4188494;28;20293;-68
2021/03/16 03:29:15;;;;;;;1.70;1.23;;;2.50;99.90;;;;;;4188019;28;20257;-69
2021/03/16 03:31:18;;;;;;;1.97;1.47;;;2.50;99.90;;;;;;4188925;28;20322;-68
2021/03/16 03:33:21;;;;;;;2.07;1.40;;;2.50;99.90;;;;;;4186853;28;20315;-67
2021/03/16 03:35:23;;;;;;;2.13;1.40;;;2.50;99.90;;;;;;4187550;28;20746;-68
2021/03/16 03:37:25;;;;;;;3.40;1.53;;;2.60;99.90;;;;;;4187843;28;20618;-68
2021/03/16 03:39:29;;;;;;;3.63;1.90;;;2.60;99.90;;;;;;4189074;28;20266;-68
2021/03/16 03:41:31;;;;;;;2.33;1.87;;;2.50;99.90;;;;;;4188176;28;20629;-70
2021/03/16 03:43:34;;;;;;;4.53;2.30;;;2.50;99.90;;;;;;4187119;28;20292;-68
2021/03/16 03:45:38;;;;;;;3.17;2.23;;;2.50;99.90;;;;;;4188654;28;20292;-69
2021/03/16 03:47:41;;;;;;;2.57;2.17;;;2.50;99.90;;;;;;4188357;28;20273;-70
2021/03/16 03:49:44;;;;;;;2.93;1.70;;;2.50;99.90;;;;;;4188572;28;20269;-67
2021/03/16 03:51:49;;;;;;;2.20;1.80;;;2.50;99.90;;;;;;4188116;28;20265;-68
2021/03/16 03:53:52;;;;;;;4.87;2.20;;;2.50;99.90;;;;;;4188920;28;20307;-69
2021/03/16 03:55:54;;;;;;;3.60;1.90;;;2.50;99.90;;;;;;4187717;28;20289;-69
2021/03/16 03:57:56;;;;;;;2.43;1.83;;;2.50;99.90;;;;;;4188710;28;20281;-67
2021/03/16 03:59:58;;;;;;;2.57;1.83;;;2.50;99.90;;;;;;4187832;28;20315;-67
2021/03/16 04:01:59;;;;;;;2.20;1.97;;;2.50;99.90;;;;;;4189142;28;20644;-67
2021/03/16 04:04:01;;;;;;;2.33;2.13;;;2.60;99.90;;;;;;4186357;28;20287;-69
2021/03/16 04:06:03;;;;;;;2.77;2.07;;;2.50;99.90;;;;;;4188413;28;20301;-71
2021/03/16 04:08:05;;;;;;;2.93;1.83;;;2.50;99.90;;;;;;4187930;28;20826;-67
2021/03/16 04:10:09;;;;;;;2.27;1.53;;;2.50;99.90;;;;;;4188887;28;20266;-68
2021/03/16 04:12:11;;;;;;;2.93;1.70;;;2.40;99.90;;;;;;4188511;28;20265;-68
2021/03/16 04:14:13;;;;;;;2.13;1.93;;;2.40;99.90;;;;;;4188750;28;20277;-68
2021/03/16 04:16:15;;;;;;;2.27;1.70;;;2.30;99.90;;;;;;4188140;28;20382;-68
2021/03/16 04:18:16;;;;;;;2.50;1.53;;;2.30;99.90;;;;;;4187668;28;20302;-69
2021/03/16 04:20:17;;;;;;;2.53;1.87;;;2.30;99.90;;;;;;4188111;28;20335;-69
2021/03/16 04:22:18;;;;;;;3.73;2.60;;;2.30;99.90;;;;;;4189143;28;20262;-69
2021/03/16 04:24:20;;;;;;;2.87;2.33;;;2.30;99.90;;;;;;4191627;28;20269;-69
2021/03/16 04:26:21;;;;;;;2.40;1.87;;;2.30;99.90;;;;;;4190057;28;21308;-68
2021/03/16 04:28:22;;;;;;;2.33;1.90;;;2.30;99.90;;;;;;4191333;28;20856;-68
2021/03/16 04:30:24;;;;;;;2.10;1.73;;;2.20;99.90;;;;;;4189719;28;20319;-68
2021/03/16 04:32:25;;;;;;;1.77;1.60;;;2.20;99.90;;;;;;4190823;28;20281;-69
2021/03/16 04:34:28;;;;;;;3.03;1.93;;;2.20;99.90;;;;;;4190213;28;20756;-69
2021/03/16 04:36:29;;;;;;;1.70;1.60;;;2.20;99.90;;;;;;4191269;28;20603;-70
2021/03/16 04:38:30;;;;;;;1.87;1.77;;;2.20;99.90;;;;;;4190646;28;20283;-68
2021/03/16 04:40:31;;;;;;;2.70;1.90;;;2.20;99.90;;;;;;4191136;28;20659;-69
2021/03/16 04:42:33;;;;;;;3.03;1.90;;;2.10;99.90;;;;;;4190839;28;20269;-68
2021/03/16 04:44:34;;;;;;;1.57;1.47;;;2.10;99.90;;;;;;4191027;28;20760;-68
2021/03/16 04:46:35;;;;;;;2.03;1.63;;;2.10;99.90;;;;;;4190558;28;20683;-68
2021/03/16 04:48:36;;;;;;;1.77;1.53;;;2.10;99.90;;;;;;4190837;28;20273;-67
2021/03/16 04:50:37;;;;;;;2.27;1.90;;;2.10;99.90;;;;;;4190619;28;20311;-68
2021/03/16 04:52:39;;;;;;;1.63;1.37;;;2.10;99.90;;;;;;4190210;28;20681;-68
2021/03/16 04:54:40;;;;;;;6.53;1.70;;;2.10;99.90;;;;;;4189163;28;20277;-64
2021/03/16 04:56:41;;;;;;;2.60;1.77;;;2.00;99.90;;;;;;4190547;28;20922;-67
2021/03/16 04:58:42;;;;;;;2.37;2.17;;;2.00;99.90;;;;;;4190732;28;20261;-69
2021/03/16 05:00:43;;;;;;;2.80;2.00;;;2.00;99.90;;;;;;4189291;28;20311;-67
2021/03/16 05:02:44;;;;;;;3.43;2.13;;;2.00;99.90;;;;;;4191294;28;20269;-68
2021/03/16 05:04:45;;;;;;;2.70;2.30;;;2.10;99.90;;;;;;4190203;28;20269;-69
2021/03/16 05:06:49;;;;;;;2.53;2.10;;;2.00;99.90;;;;;;4191069;28;20339;-68
2021/03/16 05:08:51;;;;;;;6.63;2.47;;;2.00;99.90;;;;;;4189964;28;20269;-69
2021/03/16 05:10:52;;;;;;;1.93;1.73;;;2.10;99.90;;;;;;4190939;28;20269;-68
2021/03/16 05:12:53;;;;;;;4.50;2.40;;;2.00;99.90;;;;;;4189700;28;20362;-68
2021/03/16 05:14:54;;;;;;;3.30;2.00;;;2.00;99.90;;;;;;4188663;28;20285;-67
2021/03/16 05:16:55;;;;;;;4.77;2.10;;;1.90;99.90;;;;;;4189158;28;20347;-69
2021/03/16 05:18:57;;;;;;;6.80;2.80;;;1.90;99.90;;;;;;4189947;28;20355;-69
2021/03/16 05:20:58;;;;;;;3.10;2.17;;;1.90;99.90;;;;;;4188123;28;20327;-69
2021/03/16 05:22:59;;;;;;;6.30;2.73;;;1.90;99.90;;;;;;4190079;28;20313;-70
2021/03/16 05:25:01;;;;;;;5.47;2.30;;;1.90;99.90;;;;;;4189564;28;20777;-70
2021/03/16 05:27:02;;;;;;;2.63;2.23;;;1.90;99.90;;;;;;4189018;28;20334;-69
2021/03/16 05:29:04;;;;;;;3.27;2.20;;;1.90;99.90;;;;;;4190204;28;20289;-69
2021/03/16 05:31:06;;;;;;;3.10;2.00;;;1.90;99.90;;;;;;4189067;28;20319;-67
2021/03/16 05:33:07;;;;;;;5.87;3.07;;;1.90;99.90;;;;;;4189328;28;20273;-69
2021/03/16 05:35:09;;;;;;;19.00;7.63;;;1.90;99.90;;;;;;4186959;28;20278;-64
2021/03/16 05:37:11;;;;;;;11.53;5.80;;;1.90;99.90;;;;;;4182243;28;20273;-68
2021/03/16 05:39:13;;;;;;;3.67;2.90;;;1.90;99.90;;;;;;4173171;28;20278;-69
2021/03/16 05:41:14;;;;;;;15.40;8.00;;;1.90;99.90;;;;;;4173944;28;20286;-70
2021/03/16 05:43:16;;;;;;;13.33;6.00;;;1.90;99.90;;;;;;4171906;28;20320;-68
2021/03/16 05:45:17;;;;;;;18.23;6.50;;;1.90;99.90;;;;;;4172819;28;20274;-68
2021/03/16 05:47:20;;;;;;;17.43;6.27;;;1.80;99.90;;;;;;4172247;28;20293;-68
2021/03/16 05:49:23;;;;;;;16.03;6.77;;;1.80;99.90;;;;;;4173292;28;21159;-69
2021/03/16 05:51:25;;;;;;;15.90;6.43;;;1.80;99.90;;;;;;4172752;28;20270;-69
2021/03/16 05:53:27;;;;;;;17.00;7.37;;;1.90;99.90;;;;;;4173409;28;20312;-66
2021/03/16 05:55:28;;;;;;;9.60;5.50;;;1.80;99.90;;;;;;4185429;28;20285;-69
2021/03/16 05:57:30;;;;;;;10.77;5.27;;;1.90;99.90;;;;;;4186572;28;20278;-68
2021/03/16 05:59:31;;;;;;;11.77;6.03;;;1.90;99.90;;;;;;4188602;28;20319;-67
2021/03/16 06:01:32;;;;;;;7.83;4.30;;;2.00;99.90;;;;;;4176438;28;20324;-65
2021/03/16 06:03:34;;;;;;;6.80;4.10;;;2.00;99.90;;;;;;4174106;28;20340;-69
2021/03/16 06:05:35;;;;;;;8.67;4.50;;;2.00;99.90;;;;;;4175294;28;20734;-68
2021/03/16 06:07:36;;;;;;;5.73;2.77;;;2.00;99.90;;;;;;4185006;28;20934;-68
2021/03/16 06:09:38;;;;;;;4.87;3.27;;;2.00;99.90;;;;;;4188471;28;20338;-68
2021/03/16 06:11:46;;;;;;;5.17;2.87;;;2.00;99.90;;;;;;4188741;28;20757;-67
2021/03/16 06:13:49;;;;;;;4.20;3.00;;;2.00;99.90;;;;;;4188725;28;20394;-67
2021/03/16 06:15:52;;;;;;;5.60;3.50;;;2.00;99.90;;;;;;4189447;28;20282;-67
2021/03/16 06:17:54;;;;;;;11.53;5.60;;;2.00;99.90;;;;;;4188605;28;20291;-67
2021/03/16 06:19:55;;;;;;;6.40;3.50;;;2.10;99.90;;;;;;4189577;28;20311;-67
2021/03/16 06:21:58;;;;;;;6.77;3.83;;;2.10;99.90;;;;;;4154601;28;20282;-67
2021/03/16 06:24:00;;;;;;;9.47;4.67;;;2.10;99.90;;;;;;4189422;28;20270;-67
2021/03/16 06:26:13;;;;;;;10.83;5.30;;;2.20;99.90;;;;;;4189027;28;21247;-66
2021/03/16 06:28:15;;;;;;;11.27;5.07;;;2.20;99.90;;;;;;4188357;28;20331;-68
2021/03/16 06:30:28;;;;;;;7.90;4.80;;;2.20;99.90;;;;;;4187481;28;20262;-68
2021/03/16 06:32:34;;;;;;;7.43;4.00;;;2.30;99.90;;;;;;4188536;28;20273;-68
2021/03/16 06:34:36;;;;;;;22.67;10.10;;;2.30;99.90;;;;;;4188643;28;20368;-68
2021/03/16 06:36:39;;;;;;;12.97;6.17;;;2.30;99.90;;;;;;4185924;28;20737;-67
2021/03/16 06:38:40;;;;;;;16.27;7.27;;;2.30;99.90;;;;;;4187743;28;20371;-69
2021/03/16 06:40:41;;;;;;;12.47;6.13;;;2.40;99.90;;;;;;4166236;28;20277;-65
2021/03/16 06:42:42;;;;;;;8.77;4.70;;;2.30;99.90;;;;;;4180682;28;20269;-67
2021/03/16 06:44:44;;;;;;;9.70;5.27;;;2.30;99.90;;;;;;4194307;28;20296;-65
2021/03/16 06:47:14;;;;;;;14.67;6.37;;;2.40;99.90;;;;;;4184001;28;20301;-65
2021/03/16 06:49:17;;;;;;;17.90;8.27;;;2.40;99.90;;;;;;4187424;28;20269;-68
2021/03/16 06:51:28;;;;;;;11.17;6.27;;;2.50;99.90;;;;;;4184189;28;20324;-66
2021/03/16 06:53:29;;;;;;;;;;;2.50;99.90;;;;;;4189156;28;20273;-64
2021/03/16 06:55:30;;;;;;;;;;;2.50;99.90;;;;;;4188240;28;19966;-65
2021/03/16 06:57:31;;;;;;;9.00;3.95;;;2.60;99.90;;;;;;4184823;28;20462;-63
2021/03/16 06:59:32;;;;;;;9.30;4.27;;;2.70;99.90;;;;;;4188886;28;20028;-64
2021/03/16 07:01:35;;;;;;;11.40;5.13;;;2.70;99.90;;;;;;4202614;28;20288;-65
2021/03/16 07:03:37;;;;;;;8.53;3.80;;;2.80;99.90;;;;;;4190893;28;20281;-66
2021/03/16 07:05:38;;;;;;;7.93;3.50;;;2.80;99.90;;;;;;4188104;28;20819;-68
2021/03/16 07:07:42;;;;;;;7.93;4.30;;;2.80;99.90;;;;;;4183764;28;20697;-69
2021/03/16 07:09:45;;;;;;;6.93;3.97;;;2.90;99.90;;;;;;4171942;28;20840;-63
2021/03/16 07:11:51;;;;;;;9.37;4.80;;;2.90;99.90;;;;;;4179764;28;20273;-63
2021/03/16 07:13:52;;;;;;;5.73;3.23;;;2.90;99.90;;;;;;4188482;28;20307;-65
2021/03/16 07:15:54;;;;;;;5.40;2.97;;;2.90;99.90;;;;;;4188374;28;20297;-63
2021/03/16 07:17:57;;;;;;;5.37;2.77;;;2.90;99.90;;;;;;4188664;28;20331;-64
2021/03/16 07:20:07;;;;;;;3.43;2.20;;;2.90;99.90;;;;;;4189066;28;20261;-66
2021/03/16 07:22:16;;;;;;;3.60;2.40;;;2.80;99.90;;;;;;4187414;28;20261;-65
2021/03/16 07:24:21;;;;;;;3.53;2.50;;;2.80;99.90;;;;;;4189021;28;20326;-66
2021/03/16 07:26:24;;;;;;;3.57;2.30;;;2.80;99.90;;;;;;4188802;28;20709;-65
2021/03/16 07:28:25;;;;;;;2.90;1.90;;;2.80;99.90;;;;;;4188891;28;20261;-65
2021/03/16 07:30:28;;;;;;;3.93;2.20;;;2.80;99.90;;;;;;4186909;28;21171;-66
2021/03/16 07:32:30;;;;;;;5.17;3.27;;;2.80;99.90;;;;;;4186760;28;20295;-67
2021/03/16 07:34:31;;;;;;;4.70;3.07;;;2.80;99.90;;;;;;4190765;28;20360;-66
2021/03/16 07:36:35;;;;;;;5.30;2.10;;;2.80;99.90;;;;;;4190410;28;20888;-63
2021/03/16 07:38:38;;;;;;;3.00;1.70;;;2.90;99.90;;;;;;4189049;28;20262;-63
2021/03/16 07:40:42;;;;;;;2.43;2.00;;;2.80;99.90;;;;;;4194015;28;20280;-63
2021/03/16 07:42:45;;;;;;;6.23;2.13;;;2.80;99.90;;;;;;4190729;28;20382;-67
2021/03/16 07:44:47;;;;;;;4.20;2.00;;;2.90;99.90;;;;;;4204378;28;20298;-65
2021/03/16 07:47:03;;;;;;;3.90;2.80;;;2.90;99.90;;;;;;4205678;28;20377;-65
2021/03/16 07:49:05;;;;;;;3.50;2.70;;;2.90;99.90;;;;;;4203200;28;20784;-65
2021/03/16 07:51:18;;;;;;;5.10;2.73;;;2.90;99.90;;;;;;4193376;28;20273;-68
2021/03/16 07:53:26;;;;;;;3.93;2.83;;;2.90;99.90;;;;;;4187689;28;20758;-66
2021/03/16 07:55:28;;;;;;;2.13;1.70;;;2.90;99.90;;;;;;4187795;28;20618;-66
2021/03/16 07:57:31;;;;;;;4.80;3.27;;;2.90;99.90;;;;;;4189042;28;20315;-66
2021/03/16 07:59:34;;;;;;;3.00;2.00;;;2.90;99.90;;;;;;4190707;28;20269;-68
2021/03/16 08:01:48;;;;;;;3.57;2.20;;;2.90;99.90;;;;;;4191911;28;20326;-69
2021/03/16 08:03:50;;;;;;;4.10;2.00;;;3.00;99.90;;;;;;4199801;28;20257;-67
2021/03/16 08:05:52;;;;;;;2.77;1.97;;;2.90;99.90;;;;;;4190983;28;20812;-66
2021/03/16 08:07:54;;;;;;;3.07;2.00;;;3.00;99.90;;;;;;4191675;28;20345;-67
2021/03/16 08:09:57;;;;;;;4.07;1.87;;;3.00;99.90;;;;;;4191679;28;20308;-64
2021/03/16 08:11:58;;;;;;;1.97;1.50;;;3.10;99.90;;;;;;4191384;28;20737;-63
2021/03/16 08:14:01;;;;;;;3.70;2.10;;;3.10;99.90;;;;;;4190968;28;20286;-68
2021/03/16 08:16:13;;;;;;;3.57;2.03;;;3.10;99.90;;;;;;4191270;28;20278;-66
2021/03/16 08:18:27;;;;;;;2.93;1.50;;;3.10;99.90;;;;;;4191147;28;20997;-65
2021/03/16 08:20:28;;;;;;;2.90;1.83;;;3.20;99.90;;;;;;4190536;28;20326;-69
2021/03/16 08:22:30;;;;;;;2.83;1.60;;;3.20;99.90;;;;;;4191520;28;20273;-65
2021/03/16 08:24:41;;;;;;;2.53;1.90;;;3.20;99.90;;;;;;4191311;28;20741;-67
2021/03/16 08:26:50;;;;;;;4.93;2.77;;;3.20;99.90;;;;;;4191067;28;20342;-69
2021/03/16 08:28:51;;;;;;;8.93;4.50;;;3.10;99.90;;;;;;4189601;28;20315;-69
2021/03/16 08:30:53;;;;;;;9.43;4.10;;;3.10;99.90;;;;;;4189001;28;21082;-63
2021/03/16 08:32:55;;;;;;;10.57;5.00;;;3.10;99.90;;;;;;4193549;28;20266;-64
2021/03/16 08:34:57;;;;;;;7.33;3.67;;;3.10;99.90;;;;;;4199707;28;20273;-68
2021/03/16 08:36:58;;;;;;;3.87;2.57;;;3.10;99.90;;;;;;4190319;28;20254;-66
2021/03/16 08:38:59;;;;;;;4.03;2.70;;;3.00;99.90;;;;;;4193596;28;20273;-66
2021/03/16 08:41:15;;;;;;;5.70;3.30;;;3.00;99.90;;;;;;4190734;28;20261;-65
2021/03/16 08:43:17;;;;;;;1.67;1.33;;;3.00;99.90;;;;;;4190735;28;20311;-68
2021/03/16 08:45:31;;;;;;;3.00;1.97;;;3.00;99.90;;;;;;4189461;28;20297;-68
2021/03/16 08:47:33;;;;;;;3.63;2.73;;;3.00;99.90;;;;;;4190771;28;20366;-63
2021/03/16 08:49:41;;;;;;;2.43;1.70;;;3.10;99.90;;;;;;4188980;28;20273;-66
2021/03/16 08:51:43;;;;;;;2.47;1.90;;;3.10;99.90;;;;;;4194801;28;20284;-67
2021/03/16 08:53:47;;;;;;;3.63;2.57;;;3.10;99.90;;;;;;4181297;28;20277;-65
2021/03/16 08:55:52;;;;;;;3.27;2.73;;;3.10;99.90;;;;;;4179434;28;20798;-67
2021/03/16 08:57:54;;;;;;;3.00;2.33;;;3.10;99.90;;;;;;4184019;28;20261;-67
2021/03/16 09:00:03;;;;;;;1.47;1.37;;;3.10;99.90;;;;;;4186365;28;20266;-66
2021/03/16 09:02:04;;;;;;;1.23;1.13;;;3.10;99.90;;;;;;4189832;28;20335;-64
2021/03/16 09:04:10;;;;;;;2.83;1.97;;;3.10;99.90;;;;;;4190587;28;20707;-65
2021/03/16 09:06:21;;;;;;;2.77;2.17;;;3.10;99.90;;;;;;4197483;28;20318;-66
2021/03/16 09:08:22;;;;;;;2.40;2.20;;;3.10;99.90;;;;;;4206626;28;20304;-65
2021/03/16 09:10:25;;;;;;;5.33;2.60;;;3.10;99.90;;;;;;4207571;28;20675;-67
2021/03/16 09:12:27;;;;;;;2.43;2.00;;;3.20;99.90;;;;;;4207038;28;20280;-67
2021/03/16 09:14:29;;;;;;;2.83;2.23;;;3.20;99.90;;;;;;4206364;28;20318;-67
2021/03/16 09:16:30;;;;;;;3.47;2.77;;;3.20;99.90;;;;;;4206586;28;20277;-65
2021/03/16 09:18:33;;;;;;;3.50;2.20;;;3.20;99.90;;;;;;4207494;28;20310;-65
2021/03/16 09:20:37;;;;;;;4.77;2.57;;;3.20;99.90;;;;;;4190220;28;20289;-67
2021/03/16 09:22:39;;;;;;;2.13;1.90;;;3.20;99.90;;;;;;4189836;28;20278;-66
2021/03/16 09:24:46;;;;;;;3.30;2.40;;;3.20;99.90;;;;;;4189681;28;20265;-67
2021/03/16 09:27:01;;;;;;;2.03;1.30;;;3.30;99.90;;;;;;4190603;28;20266;-67
2021/03/16 09:29:02;;;;;;;3.03;1.50;;;3.20;99.90;;;;;;4189174;28;20277;-66
2021/03/16 09:31:03;;;;;;;2.47;1.43;;;3.20;99.90;;;;;;4190558;28;20326;-66
2021/03/16 09:33:06;;;;;;;3.13;1.40;;;3.30;99.90;;;;;;4200364;28;20257;-66
2021/03/16 09:35:08;;;;;;;3.13;1.40;;;3.20;99.90;;;;;;4190787;28;20332;-66
2021/03/16 09:37:11;;;;;;;2.30;1.70;;;3.30;99.90;;;;;;4189520;28;20319;-67
2021/03/16 09:39:12;;;;;;;4.00;1.30;;;3.40;99.90;;;;;;4190438;28;20300;-66
2021/03/16 09:41:13;;;;;;;1.87;1.10;;;3.40;99.90;;;;;;4189354;28;20366;-64
2021/03/16 09:43:17;;;;;;;2.60;1.60;;;3.40;99.90;;;;;;4193075;28;20671;-66
2021/03/16 09:45:18;;;;;;;1.30;0.93;;;3.40;99.90;;;;;;4189409;28;20277;-66
2021/03/16 09:47:26;;;;;;;1.13;1.03;;;3.40;99.90;;;;;;4189682;28;20343;-66
2021/03/16 09:49:38;;;;;;;1.50;0.80;;;3.40;99.90;;;;;;4189638;28;20335;-67
2021/03/16 09:51:44;;;;;;;0.90;0.77;;;3.40;99.90;;;;;;4190012;28;20269;-70
2021/03/16 09:54:05;;;;;;;1.00;0.90;;;3.40;99.90;;;;;;4189388;28;20729;-67
2021/03/16 09:56:09;;;;;;;1.35;0.70;;;3.30;99.90;;;;;;4184466;28;20327;-67
2021/03/16 09:58:29;;;;;;;2.43;1.20;;;3.30;99.90;;;;;;4188530;28;20024;-69
2021/03/16 10:00:30;;;;;;;1.95;0.95;;;3.30;99.90;;;;;;4190053;28;20261;-65
2021/03/16 10:02:36;;;;;;;1.50;0.77;;;3.30;99.90;;;;;;4186667;28;20025;-67
2021/03/16 10:04:48;;;;;;;1.20;1.10;;;3.30;99.90;;;;;;4172768;28;20335;-69
2021/03/16 10:06:56;;;;;;;1.50;0.70;;;3.30;99.90;;;;;;4172041;28;20282;-65
2021/03/16 10:08:57;;;;;;;1.57;0.90;;;3.30;99.90;;;;;;4173419;28;20338;-68
2021/03/16 10:10:59;;;;;;;1.47;0.90;;;3.40;99.90;;;;;;4172957;28;20335;-67
2021/03/16 10:13:03;;;;;;;2.23;1.50;;;3.40;99.90;;;;;;4172358;28;20274;-68
2021/03/16 10:15:07;;;;;;;1.40;1.10;;;3.40;99.90;;;;;;4185270;28;20492;-66
2021/03/16 10:17:08;;;;;;;0.60;0.60;;;3.40;99.90;;;;;;4188738;28;21020;-66
2021/03/16 10:19:19;;;;;;;1.10;0.70;;;3.40;99.90;;;;;;4188991;28;20254;-66
2021/03/16 10:21:31;;;;;;;1.00;0.70;;;3.40;99.90;;;;;;4188440;28;20723;-65
2021/03/16 10:23:33;;;;;;;0.80;0.70;;;3.40;99.90;;;;;;4185427;28;20300;-68
2021/03/16 10:25:35;;;;;;;1.47;0.70;;;3.40;99.90;;;;;;4188412;28;20269;-65
2021/03/16 10:27:36;;;;;;;1.27;0.70;;;3.40;99.90;;;;;;4188644;28;20366;-65
2021/03/16 10:29:38;;;;;;;0.60;0.60;;;3.40;99.90;;;;;;4188468;28;20273;-67
2021/03/16 10:31:39;;;;;;;1.40;1.00;;;3.40;99.90;;;;;;4188974;28;20386;-66
2021/03/16 10:33:40;;;;;;;2.47;1.00;;;3.40;99.90;;;;;;4186814;28;20324;-65
2021/03/16 10:35:42;;;;;;;1.47;0.83;;;3.40;99.90;;;;;;4189539;28;20331;-66
2021/03/16 10:37:44;;;;;;;1.10;0.80;;;3.30;99.90;;;;;;4188329;28;20285;-66
2021/03/16 10:39:46;;;;;;;1.53;0.90;;;3.30;99.90;;;;;;4190192;28;20285;-66
2021/03/16 10:41:47;;;;;;;1.33;1.20;;;3.30;99.90;;;;;;4188482;28;20671;-66
2021/03/16 10:43:48;;;;;;;2.17;1.27;;;3.30;99.90;;;;;;4188825;28;20338;-65
2021/03/16 10:45:53;;;;;;;1.97;1.20;;;3.30;99.90;;;;;;4188137;28;20257;-65
2021/03/16 10:47:55;;;;;;;1.17;0.87;;;3.30;99.90;;;;;;4188831;28;20297;-66
2021/03/16 10:49:56;;;;;;;1.20;0.90;;;3.30;99.90;;;;;;4188654;28;20273;-66
2021/03/16 10:51:57;;;;;;;5.03;1.00;;;3.30;99.90;;;;;;4187834;28;20327;-67
2021/03/16 10:53:58;;;;;;;2.10;1.20;;;3.40;99.90;;;;;;4188526;28;20303;-65